Augusta, Indiana
Current Conditions -  °F | °C
As of 7:15 AM on Tuesday 21 Oct 2014 (Local Time) from KHNB Reporting Station
Broken Clouds Broken Clouds  
Wind Chill: 44°   Ceiling: 5500
Heat Index: 46°   Visibility: 10mi
Dew Point: 41°   Wind: 6mph
Humidity: 81%   Direction: 30°NNE
Pressure: 30.06"   Gusts: NA
Location:  38.3488°N, 87.2217°W
Report Text: KHNB 211215Z AUTO 03005KT 10SM BKN055 08/05 A3006 RMK AO1
Loading
Personal Weather Stations






























Interactive Weather Map
Tropical Storm Tracking
New forecast layout! Learn more

10-Day Weather Forecast

Advertisements
Track Severe Weather on mobile